createdAt,value
2017-10-21T00:02:01.894Z,3.87
2017-10-21T00:04:28.512Z,4.77
2017-10-21T00:06:55.113Z,3.87
2017-10-21T00:09:21.752Z,4.40
2017-10-21T00:11:48.347Z,4.00
2017-10-21T00:14:14.930Z,4.30
2017-10-21T00:16:41.707Z,4.00
2017-10-21T00:19:08.288Z,4.03
2017-10-21T00:21:34.899Z,4.60
2017-10-21T00:24:01.486Z,5.70
2017-10-21T00:26:28.157Z,5.17
2017-10-21T00:28:54.740Z,3.87
2017-10-21T00:31:21.363Z,4.50
2017-10-21T00:33:47.945Z,7.40
2017-10-21T00:36:14.539Z,4.47
2017-10-21T00:38:41.415Z,4.00
2017-10-21T00:41:08.006Z,5.20
2017-10-21T00:43:35.011Z,3.90
2017-10-21T00:46:01.623Z,4.17
2017-10-21T00:48:28.217Z,4.90
2017-10-21T00:50:54.821Z,4.23
2017-10-21T00:53:21.435Z,4.40
2017-10-21T00:55:48.041Z,4.50
2017-10-21T00:58:14.658Z,3.80
2017-10-21T01:00:41.275Z,4.20
2017-10-21T01:03:07.867Z,4.90
2017-10-21T01:05:34.485Z,4.27
2017-10-21T01:08:01.086Z,4.77
2017-10-21T01:10:27.686Z,4.90
2017-10-21T01:12:54.276Z,4.17
2017-10-21T01:15:20.905Z,5.20
2017-10-21T01:17:47.496Z,4.53
2017-10-21T01:20:14.092Z,4.20
2017-10-21T01:22:41.174Z,3.93
2017-10-21T01:25:07.927Z,5.10
2017-10-21T01:27:34.540Z,4.47
2017-10-21T01:30:01.138Z,4.10
2017-10-21T01:32:27.713Z,3.93
2017-10-21T01:34:54.332Z,4.50
2017-10-21T01:37:20.949Z,3.47
2017-10-21T01:39:47.544Z,4.37
2017-10-21T01:42:14.136Z,3.70
2017-10-21T01:44:40.732Z,4.30
2017-10-21T01:47:07.324Z,4.33
2017-10-21T01:49:33.961Z,3.90
2017-10-21T01:52:00.567Z,4.07
2017-10-21T01:54:27.161Z,3.60
2017-10-21T01:56:53.793Z,3.60
2017-10-21T01:59:20.380Z,3.90
2017-10-21T02:01:46.975Z,3.80
2017-10-21T02:04:13.593Z,4.00
2017-10-21T02:06:40.170Z,3.47
2017-10-21T02:09:06.789Z,4.30
2017-10-21T02:11:33.399Z,4.10
2017-10-21T02:13:59.994Z,3.60
2017-10-21T02:16:26.608Z,3.60
2017-10-21T02:18:53.233Z,4.13
2017-10-21T02:21:19.816Z,4.43
2017-10-21T02:23:46.439Z,3.33
2017-10-21T02:26:13.030Z,4.50
2017-10-21T02:28:39.612Z,4.00
2017-10-21T02:31:06.214Z,4.50
2017-10-21T02:33:32.788Z,4.47
2017-10-21T02:35:59.386Z,4.47
2017-10-21T02:38:25.975Z,6.20
2017-10-21T02:40:52.616Z,4.90
2017-10-21T02:43:19.204Z,4.70
2017-10-21T02:45:45.775Z,5.17
2017-10-21T02:48:12.426Z,4.50
2017-10-21T02:50:39.200Z,5.40
2017-10-21T02:53:05.793Z,4.90
2017-10-21T02:55:32.381Z,4.73
2017-10-21T02:57:58.989Z,4.60
2017-10-21T03:00:25.589Z,4.80
2017-10-21T03:02:52.170Z,5.50
2017-10-21T03:05:18.862Z,4.60
2017-10-21T03:07:45.468Z,5.20
2017-10-21T03:10:12.071Z,4.80
2017-10-21T03:12:38.691Z,5.37
2017-10-21T03:15:05.278Z,5.60
2017-10-21T03:17:31.894Z,4.60
2017-10-21T03:19:58.492Z,5.10
2017-10-21T03:22:25.085Z,4.10
2017-10-21T03:24:51.683Z,5.03
2017-10-21T03:27:18.284Z,5.30
2017-10-21T03:29:44.870Z,5.20
2017-10-21T03:32:11.474Z,4.93
2017-10-21T03:34:38.093Z,5.73
2017-10-21T03:37:04.688Z,5.43
2017-10-21T03:39:31.453Z,5.77
2017-10-21T03:41:58.063Z,5.80
2017-10-21T03:44:24.653Z,6.03
2017-10-21T03:46:51.267Z,5.93
2017-10-21T03:49:17.882Z,5.77
2017-10-21T03:51:44.675Z,5.30
2017-10-21T03:54:11.304Z,5.43
2017-10-21T03:56:37.907Z,5.50
2017-10-21T03:59:04.488Z,5.53
2017-10-21T04:01:31.096Z,5.67
2017-10-21T04:03:57.705Z,5.83
2017-10-21T04:06:24.567Z,6.03
2017-10-21T04:08:51.188Z,5.70
2017-10-21T04:11:17.763Z,6.73
2017-10-21T04:13:44.378Z,6.13
2017-10-21T04:16:10.975Z,6.00
2017-10-21T04:18:37.719Z,6.60
2017-10-21T04:21:04.323Z,5.40
2017-10-21T04:23:30.925Z,6.57
2017-10-21T04:25:57.512Z,5.97
2017-10-21T04:28:24.110Z,6.10
2017-10-21T04:30:50.758Z,6.07
2017-10-21T04:33:17.339Z,5.83
2017-10-21T04:35:43.952Z,6.90
2017-10-21T04:38:10.778Z,6.10
2017-10-21T04:40:37.397Z,6.00
2017-10-21T04:43:03.992Z,5.93
2017-10-21T04:45:30.601Z,6.23
2017-10-21T04:47:57.216Z,5.50
2017-10-21T04:50:23.815Z,6.50
2017-10-21T04:52:50.427Z,6.13
2017-10-21T04:55:17.033Z,6.20
2017-10-21T04:57:43.653Z,6.10
2017-10-21T05:00:10.249Z,6.43
2017-10-21T05:02:36.925Z,7.00
2017-10-21T05:05:03.513Z,6.10
2017-10-21T05:07:30.109Z,6.77
2017-10-21T05:09:56.709Z,7.00
2017-10-21T05:12:23.305Z,5.70
2017-10-21T05:14:49.918Z,5.90
2017-10-21T05:17:16.518Z,6.67
2017-10-21T05:19:43.123Z,5.70
2017-10-21T05:22:09.704Z,6.77
2017-10-21T05:24:36.328Z,7.07
2017-10-21T05:27:02.919Z,6.40
2017-10-21T05:29:29.501Z,6.03
2017-10-21T05:31:56.117Z,6.00
2017-10-21T05:34:22.708Z,6.60
2017-10-21T05:36:49.519Z,5.60
2017-10-21T05:39:16.660Z,5.97
2017-10-21T05:41:43.243Z,6.80
2017-10-21T05:44:09.871Z,6.17
2017-10-21T05:46:36.476Z,6.07
2017-10-21T05:49:03.097Z,6.03
2017-10-21T05:51:29.688Z,6.00
2017-10-21T05:53:56.290Z,5.57
2017-10-21T05:56:22.888Z,6.30
2017-10-21T05:58:49.524Z,6.17
2017-10-21T06:01:16.211Z,6.10
2017-10-21T06:03:42.790Z,6.10
2017-10-21T06:06:09.402Z,6.13
2017-10-21T06:08:36.525Z,6.07
2017-10-21T06:11:03.150Z,6.83
2017-10-21T06:13:29.748Z,6.00
2017-10-21T06:15:56.351Z,6.43
2017-10-21T06:18:22.945Z,5.60
2017-10-21T06:20:49.556Z,6.87
2017-10-21T06:23:16.467Z,6.30
2017-10-21T06:25:43.060Z,6.20
2017-10-21T06:28:09.836Z,5.97
2017-10-21T06:30:36.440Z,5.77
2017-10-21T06:33:03.075Z,6.40
2017-10-21T06:35:29.684Z,6.27
2017-10-21T06:37:56.318Z,6.63
2017-10-21T06:40:22.910Z,6.13
2017-10-21T06:42:49.558Z,7.60
2017-10-21T06:45:16.185Z,6.40
2017-10-21T06:47:42.805Z,7.70
2017-10-21T06:50:09.434Z,6.17
2017-10-21T06:52:35.996Z,6.97
2017-10-21T06:55:02.599Z,6.60
2017-10-21T06:57:29.192Z,7.17
2017-10-21T06:59:55.802Z,6.53
2017-10-21T07:02:22.399Z,6.03
2017-10-21T07:04:48.977Z,7.33
2017-10-21T07:07:15.599Z,6.53
2017-10-21T07:09:42.201Z,6.20
2017-10-21T07:12:08.784Z,6.43
2017-10-21T07:14:35.439Z,6.80
2017-10-21T07:17:02.015Z,6.60
2017-10-21T07:19:28.596Z,6.13
2017-10-21T07:21:55.235Z,6.40
2017-10-21T07:24:21.845Z,6.30
2017-10-21T07:26:48.444Z,5.63
2017-10-21T07:29:15.103Z,6.20
2017-10-21T07:31:41.688Z,6.70
2017-10-21T07:34:08.296Z,6.30
2017-10-21T07:36:34.926Z,6.80
2017-10-21T07:39:01.535Z,6.97
2017-10-21T07:41:28.108Z,6.47
2017-10-21T07:43:54.738Z,6.50
2017-10-21T07:46:21.388Z,6.53
2017-10-21T07:48:49.260Z,7.63
2017-10-21T07:51:15.841Z,6.77
2017-10-21T07:53:43.032Z,7.10
2017-10-21T07:56:09.620Z,7.83
2017-10-21T07:58:36.222Z,7.17
2017-10-21T08:01:03.851Z,8.63
2017-10-21T08:03:30.474Z,6.47
2017-10-21T08:05:57.211Z,6.80
2017-10-21T08:08:23.797Z,8.10
2017-10-21T08:10:50.448Z,6.53
2017-10-21T08:13:17.032Z,7.20
2017-10-21T08:15:43.710Z,6.80
2017-10-21T08:18:10.427Z,6.90
2017-10-21T08:20:37.053Z,5.90
2017-10-21T08:23:03.632Z,5.77
2017-10-21T08:25:30.257Z,5.60
2017-10-21T08:27:56.905Z,6.50
2017-10-21T08:30:23.536Z,6.57
2017-10-21T08:32:52.552Z,5.77
2017-10-21T08:35:19.800Z,5.75
2017-10-21T08:37:47.028Z,6.40
2017-10-21T08:40:13.870Z,6.67
2017-10-21T08:42:44.098Z,6.37
2017-10-21T08:45:10.744Z,6.33
2017-10-21T08:47:37.349Z,7.10
2017-10-21T08:50:04.038Z,7.10
2017-10-21T08:52:30.636Z,6.30
2017-10-21T08:54:57.411Z,6.37
2017-10-21T08:57:23.997Z,6.20
2017-10-21T08:59:50.903Z,6.60
2017-10-21T09:02:17.519Z,6.20
2017-10-21T09:04:44.161Z,6.40
2017-10-21T09:07:10.751Z,9.40
2017-10-21T09:09:37.390Z,6.63
2017-10-21T09:12:04.830Z,7.63
2017-10-21T09:14:31.452Z,7.17
2017-10-21T09:16:58.053Z,7.20
2017-10-21T09:19:24.837Z,6.17
2017-10-21T09:21:51.480Z,7.20
2017-10-21T09:24:18.073Z,33.80
2017-10-21T09:26:45.116Z,6.93
2017-10-21T09:29:11.965Z,9.97
2017-10-21T09:31:38.555Z,9.53
2017-10-21T09:34:05.165Z,7.70
2017-10-21T09:36:31.802Z,7.10
2017-10-21T09:38:58.385Z,6.90
2017-10-21T09:41:24.992Z,7.50
2017-10-21T09:43:51.794Z,7.20
2017-10-21T09:46:18.401Z,6.73
2017-10-21T09:48:45.024Z,6.93
2017-10-21T09:51:11.627Z,7.80
2017-10-21T09:53:38.400Z,7.80
2017-10-21T09:56:05.049Z,9.37
2017-10-21T09:58:31.694Z,8.20
2017-10-21T10:00:58.352Z,7.57
2017-10-21T10:03:25.076Z,8.97
2017-10-21T10:05:51.696Z,10.10
2017-10-21T10:08:18.527Z,9.47
2017-10-21T10:10:46.541Z,11.27
2017-10-21T10:13:16.011Z,9.43
2017-10-21T10:15:44.276Z,10.00
2017-10-21T10:18:11.570Z,9.60
2017-10-21T10:20:38.178Z,8.83
2017-10-21T10:23:04.790Z,9.20
2017-10-21T10:25:31.384Z,9.37
2017-10-21T10:27:57.999Z,8.20
2017-10-21T10:30:24.625Z,9.13
2017-10-21T10:32:51.442Z,9.47
2017-10-21T10:35:18.137Z,9.37
2017-10-21T10:37:44.758Z,9.20
2017-10-21T10:40:11.946Z,8.60
2017-10-21T10:42:38.836Z,10.60
2017-10-21T10:45:05.482Z,10.07
2017-10-21T10:47:32.333Z,9.77
2017-10-21T10:49:58.948Z,9.20
2017-10-21T10:52:25.570Z,10.63
2017-10-21T10:54:52.192Z,9.90
2017-10-21T10:57:18.821Z,10.17
2017-10-21T10:59:45.400Z,9.67
2017-10-21T11:02:12.029Z,8.80
2017-10-21T11:04:38.632Z,9.00
2017-10-21T11:07:05.269Z,8.63
2017-10-21T11:09:32.146Z,9.50
2017-10-21T11:11:58.860Z,9.87
2017-10-21T11:14:25.438Z,9.07
2017-10-21T11:16:52.073Z,8.87
2017-10-21T11:19:18.714Z,9.50
2017-10-21T11:21:45.318Z,8.87
2017-10-21T11:24:11.938Z,8.87
2017-10-21T11:26:38.684Z,9.73
2017-10-21T11:29:05.296Z,10.30
2017-10-21T11:31:31.927Z,7.90
2017-10-21T11:33:58.540Z,8.20
2017-10-21T11:36:25.147Z,9.10
2017-10-21T11:38:51.769Z,7.60
2017-10-21T11:41:18.441Z,9.20
2017-10-21T11:43:45.015Z,7.43
2017-10-21T11:46:11.613Z,8.10
2017-10-21T11:48:38.352Z,7.73
2017-10-21T11:51:04.965Z,8.40
2017-10-21T11:53:31.599Z,8.30
2017-10-21T11:55:58.200Z,8.33
2017-10-21T11:58:24.826Z,8.70
2017-10-21T12:00:51.442Z,7.30
2017-10-21T12:03:18.068Z,8.37
2017-10-21T12:05:44.672Z,7.70
2017-10-21T12:08:11.263Z,8.10
2017-10-21T12:13:35.094Z,7.70
2017-10-21T12:16:01.700Z,8.02
2017-10-21T12:18:28.307Z,8.47
2017-10-21T12:20:54.932Z,7.67
2017-10-21T12:23:21.674Z,7.90
2017-10-21T12:25:48.315Z,8.07
2017-10-21T12:28:14.899Z,8.30
2017-10-21T12:30:41.512Z,9.53
2017-10-21T12:33:08.144Z,10.30
2017-10-21T12:35:34.765Z,8.07
2017-10-21T12:38:01.412Z,8.13
2017-10-21T12:40:28.026Z,7.93
2017-10-21T12:42:54.636Z,8.20
2017-10-21T12:45:21.236Z,8.87
2017-10-21T12:47:47.879Z,7.83
2017-10-21T12:50:14.600Z,9.37
2017-10-21T12:52:41.180Z,8.07
2017-10-21T12:55:08.045Z,7.60
2017-10-21T12:57:34.625Z,8.47
2017-10-21T13:00:01.263Z,7.80
2017-10-21T13:02:27.927Z,8.47
2017-10-21T13:04:54.536Z,9.33
2017-10-21T13:07:22.128Z,9.10
2017-10-21T13:09:48.843Z,9.20
2017-10-21T13:12:15.438Z,8.43
2017-10-21T13:14:42.109Z,8.80
2017-10-21T13:17:08.689Z,8.07
2017-10-21T13:19:35.343Z,7.50
2017-10-21T13:22:01.954Z,8.50
2017-10-21T13:24:28.565Z,8.73
2017-10-21T13:26:55.211Z,9.80
2017-10-21T13:29:21.796Z,10.60
2017-10-21T13:31:48.426Z,7.90
2017-10-21T13:34:15.066Z,7.67
2017-10-21T13:36:41.684Z,7.77
2017-10-21T13:39:08.276Z,8.40
2017-10-21T13:41:34.884Z,8.40
2017-10-21T13:44:01.630Z,8.30
2017-10-21T13:46:28.260Z,8.37
2017-10-21T13:48:54.878Z,8.20
2017-10-21T13:51:21.729Z,9.30
2017-10-21T13:53:48.583Z,8.03
2017-10-21T13:56:15.239Z,10.00
2017-10-21T13:58:41.857Z,9.17
2017-10-21T14:01:09.052Z,7.78
2017-10-21T14:03:35.640Z,6.83
2017-10-21T14:06:02.232Z,8.10
2017-10-21T14:08:28.858Z,5.97
2017-10-21T14:10:55.450Z,5.90
2017-10-21T14:13:22.056Z,6.80
2017-10-21T14:15:48.677Z,6.63
2017-10-21T14:18:15.285Z,7.07
2017-10-21T14:20:41.896Z,6.20
2017-10-21T14:23:11.598Z,6.07
2017-10-21T14:25:38.278Z,5.30
2017-10-21T14:28:04.955Z,6.50
2017-10-21T14:30:31.616Z,7.03
2017-10-21T14:32:58.258Z,6.50
2017-10-21T14:35:24.852Z,7.00
2017-10-21T14:37:51.492Z,6.50
2017-10-21T14:40:19.500Z,7.00
2017-10-21T14:42:50.074Z,7.37
2017-10-21T14:45:16.670Z,7.30
2017-10-21T14:51:12.961Z,8.50
2017-10-21T14:53:40.276Z,7.10
2017-10-21T14:56:06.896Z,8.20
2017-10-21T14:58:33.513Z,8.50
2017-10-21T15:01:00.115Z,7.70
2017-10-21T15:03:26.770Z,7.90
2017-10-21T15:05:53.379Z,8.70
2017-10-21T15:08:19.972Z,7.67
2017-10-21T15:10:46.601Z,8.30
2017-10-21T15:13:13.230Z,8.90
2017-10-21T15:15:39.848Z,7.27
2017-10-21T15:18:06.703Z,7.40
2017-10-21T15:20:33.328Z,6.10
2017-10-21T15:22:59.924Z,6.50
2017-10-21T15:25:27.179Z,5.63
2017-10-21T15:27:53.804Z,5.40
2017-10-21T15:30:20.391Z,5.63
2017-10-21T15:32:47.310Z,5.20
2017-10-21T15:35:13.882Z,4.60
2017-10-21T15:37:40.478Z,4.87
2017-10-21T15:40:07.092Z,5.80
2017-10-21T15:42:33.679Z,5.30
2017-10-21T15:45:00.290Z,3.10
2017-10-21T15:47:27.673Z,4.27
2017-10-21T15:49:54.323Z,3.50
2017-10-21T15:52:21.150Z,4.00
2017-10-21T15:54:47.763Z,2.50
2017-10-21T15:57:14.359Z,3.73
2017-10-21T15:59:40.960Z,5.43
2017-10-21T16:02:07.574Z,5.67
2017-10-21T16:04:34.181Z,3.30
2017-10-21T16:07:01.681Z,3.20
2017-10-21T16:09:28.520Z,4.13
2017-10-21T16:11:55.372Z,4.17
2017-10-21T16:14:21.965Z,3.53
2017-10-21T16:16:48.766Z,4.03
2017-10-21T16:19:15.344Z,3.90
2017-10-21T16:21:41.980Z,3.90
2017-10-21T16:24:08.596Z,5.43
2017-10-21T16:26:35.193Z,5.60
2017-10-21T16:29:01.829Z,4.90
2017-10-21T16:31:28.418Z,6.07
2017-10-21T16:33:55.020Z,4.50
2017-10-21T16:36:21.786Z,4.63
2017-10-21T16:38:48.416Z,5.30
2017-10-21T16:41:15.055Z,5.80
2017-10-21T16:43:41.639Z,4.67
2017-10-21T16:46:08.568Z,4.73
2017-10-21T16:48:35.168Z,4.23
2017-10-21T16:51:01.825Z,5.33
2017-10-21T16:53:28.505Z,4.13
2017-10-21T16:55:55.208Z,4.30
2017-10-21T16:58:21.826Z,5.00
2017-10-21T17:00:48.707Z,4.60
2017-10-21T17:03:15.368Z,4.50
2017-10-21T17:05:42.062Z,4.80
2017-10-21T17:08:08.765Z,4.30
2017-10-21T17:10:35.398Z,5.03
2017-10-21T17:13:02.018Z,4.33
2017-10-21T17:15:28.588Z,4.60
2017-10-21T17:17:55.242Z,6.37
2017-10-21T17:20:21.836Z,6.17
2017-10-21T17:22:48.492Z,5.50
2017-10-21T17:25:15.096Z,5.53
2017-10-21T17:27:41.692Z,5.30
2017-10-21T17:30:08.319Z,5.90
2017-10-21T17:32:34.945Z,4.07
2017-10-21T17:35:01.535Z,5.10
2017-10-21T17:37:28.133Z,5.00
2017-10-21T17:39:55.042Z,7.20
2017-10-21T17:42:22.125Z,4.40
2017-10-21T17:44:48.730Z,4.00
2017-10-21T17:47:15.403Z,4.37
2017-10-21T17:49:41.996Z,3.67
2017-10-21T17:52:08.646Z,5.00
2017-10-21T17:54:35.233Z,4.50
2017-10-21T17:57:01.850Z,5.10
2017-10-21T17:59:28.475Z,4.60
2017-10-21T18:01:55.076Z,5.07
2017-10-21T18:04:21.658Z,4.13
2017-10-21T18:06:48.276Z,4.60
2017-10-21T18:09:16.805Z,5.13
2017-10-21T18:11:45.238Z,4.53
2017-10-21T18:14:12.347Z,4.43
2017-10-21T18:16:39.036Z,5.37
2017-10-21T18:19:05.889Z,3.40
2017-10-21T18:21:32.500Z,5.03
2017-10-21T18:23:59.207Z,4.80
2017-10-21T18:26:25.822Z,4.90
2017-10-21T18:28:52.440Z,4.50
2017-10-21T18:31:19.069Z,4.00
2017-10-21T18:33:45.742Z,5.03
2017-10-21T18:36:12.692Z,4.37
2017-10-21T18:38:39.281Z,3.67
2017-10-21T18:41:05.916Z,2.70
2017-10-21T18:43:32.541Z,3.70
2017-10-21T18:45:59.132Z,3.23
2017-10-21T18:48:25.761Z,3.30
2017-10-21T18:50:52.335Z,3.43
2017-10-21T18:53:18.953Z,3.57
2017-10-21T18:55:45.550Z,2.63
2017-10-21T18:58:12.173Z,3.30
2017-10-21T19:00:38.787Z,3.53
2017-10-21T19:03:05.449Z,3.60
2017-10-21T19:05:32.156Z,3.67
2017-10-21T19:07:58.827Z,3.40
2017-10-21T19:10:25.424Z,3.40
2017-10-21T19:12:52.103Z,2.90
2017-10-21T19:15:18.942Z,4.30
2017-10-21T19:17:45.550Z,3.50
2017-10-21T19:20:12.193Z,3.03
2017-10-21T19:22:38.791Z,3.03
2017-10-21T19:25:05.408Z,2.83
2017-10-21T19:27:32.173Z,3.40
2017-10-21T19:29:58.801Z,4.00
2017-10-21T19:32:25.602Z,3.27
2017-10-21T19:34:52.189Z,3.50
2017-10-21T19:37:18.822Z,3.23
2017-10-21T19:39:45.546Z,3.50
2017-10-21T19:42:12.159Z,3.30
2017-10-21T19:44:39.467Z,2.57
2017-10-21T19:47:06.090Z,2.60
2017-10-21T19:49:32.695Z,3.07
2017-10-21T19:51:59.297Z,3.23
2017-10-21T19:54:25.953Z,2.97
2017-10-21T19:56:52.539Z,3.00
2017-10-21T19:59:19.147Z,3.30
2017-10-21T20:01:45.803Z,3.00
2017-10-21T20:04:14.099Z,3.10
2017-10-21T20:06:40.924Z,2.90
2017-10-21T20:09:07.535Z,3.43
2017-10-21T20:11:34.182Z,3.77
2017-10-21T20:14:00.978Z,3.70
2017-10-21T20:16:27.574Z,3.17
2017-10-21T20:18:54.186Z,4.10
2017-10-21T20:21:20.784Z,3.37
2017-10-21T20:23:47.405Z,3.47
2017-10-21T20:26:13.997Z,4.00
2017-10-21T20:28:41.297Z,3.10
2017-10-21T20:31:07.896Z,2.90
2017-10-21T20:33:34.726Z,3.43
2017-10-21T20:36:01.333Z,3.07
2017-10-21T20:38:27.923Z,3.50
2017-10-21T20:40:54.542Z,4.73
2017-10-21T20:43:21.125Z,3.50
2017-10-21T20:45:47.794Z,3.10
2017-10-21T20:48:14.379Z,3.50
2017-10-21T20:50:41.003Z,4.30
2017-10-21T20:53:07.595Z,3.60
2017-10-21T20:55:34.266Z,3.13
2017-10-21T20:58:00.933Z,4.10
2017-10-21T21:00:27.513Z,3.20
2017-10-21T21:02:54.144Z,3.50
2017-10-21T21:05:20.772Z,3.20
2017-10-21T21:07:47.408Z,3.67
2017-10-21T21:10:14.029Z,3.03
2017-10-21T21:12:40.636Z,3.17
2017-10-21T21:15:07.280Z,3.97
2017-10-21T21:17:34.868Z,3.37
2017-10-21T21:20:01.460Z,3.43
2017-10-21T21:22:28.116Z,4.47
2017-10-21T21:24:54.699Z,3.40
2017-10-21T21:27:21.325Z,4.20
2017-10-21T21:29:47.969Z,3.20
2017-10-21T21:32:14.569Z,2.90
2017-10-21T21:34:41.161Z,3.20
2017-10-21T21:37:07.800Z,3.40
2017-10-21T21:39:34.432Z,6.20
2017-10-21T21:42:01.032Z,4.00
2017-10-21T21:44:27.618Z,3.77
2017-10-21T21:46:54.236Z,3.43
2017-10-21T21:49:20.833Z,2.93
2017-10-21T21:51:47.422Z,2.73
2017-10-21T21:54:14.020Z,3.30
2017-10-21T21:56:40.633Z,3.03
2017-10-21T22:42:46.173Z,3.40
2017-10-21T22:45:12.796Z,3.20
2017-10-21T22:47:39.397Z,3.03
2017-10-21T22:50:06.056Z,3.13
2017-10-21T22:52:35.298Z,3.50
2017-10-21T22:55:01.956Z,4.00
2017-10-21T22:57:29.465Z,3.70
2017-10-21T22:59:56.070Z,4.70
2017-10-21T23:02:22.710Z,4.07
2017-10-21T23:04:49.323Z,3.40
2017-10-21T23:07:16.111Z,4.37
2017-10-21T23:09:42.785Z,4.20
2017-10-21T23:12:09.464Z,4.40
2017-10-21T23:14:42.956Z,3.93
2017-10-21T23:17:10.632Z,4.73
2017-10-21T23:19:40.275Z,4.00
2017-10-21T23:22:09.832Z,4.40
2017-10-21T23:24:36.773Z,4.80
2017-10-21T23:27:03.384Z,5.40
2017-10-21T23:29:29.996Z,4.10
2017-10-21T23:31:56.813Z,4.60
2017-10-21T23:34:23.413Z,4.60
2017-10-21T23:36:50.064Z,4.07
2017-10-21T23:39:16.721Z,3.90
2017-10-21T23:41:43.329Z,3.53
2017-10-21T23:44:09.916Z,3.93
2017-10-21T23:46:36.929Z,3.43
2017-10-21T23:49:03.517Z,3.80
2017-10-21T23:51:30.155Z,3.27
2017-10-21T23:53:56.885Z,3.97
2017-10-21T23:56:23.517Z,3.50
2017-10-21T23:58:50.122Z,3.17
